sensor_id;sensor_type;location;lat;lon;timestamp;P1;durP1;ratioP1;P2;durP2;ratioP2
60018;SDS011;45870;42.528;26.740;2022-12-18T00:01:43;0.45;;;0.15;;
60018;SDS011;45870;42.528;26.740;2022-12-18T00:04:15;0.80;;;0.52;;
60018;SDS011;45870;42.528;26.740;2022-12-18T00:06:46;3.72;;;0.50;;
60018;SDS011;45870;42.528;26.740;2022-12-18T00:09:12;0.93;;;0.63;;
60018;SDS011;45870;42.528;26.740;2022-12-18T00:11:38;0.30;;;0.20;;
60018;SDS011;45870;42.528;26.740;2022-12-18T00:14:04;0.45;;;0.20;;
60018;SDS011;45870;42.528;26.740;2022-12-18T00:16:30;1.23;;;0.75;;
60018;SDS011;45870;42.528;26.740;2022-12-18T00:18:58;0.20;;;0.10;;
60018;SDS011;45870;42.528;26.740;2022-12-18T00:21:25;0.57;;;0.35;;
60018;SDS011;45870;42.528;26.740;2022-12-18T00:23:52;1.27;;;0.32;;
60018;SDS011;45870;42.528;26.740;2022-12-18T00:26:21;0.28;;;0.17;;
60018;SDS011;45870;42.528;26.740;2022-12-18T00:28:49;0.80;;;0.20;;
60018;SDS011;45870;42.528;26.740;2022-12-18T00:31:17;1.10;;;0.45;;
60018;SDS011;45870;42.528;26.740;2022-12-18T00:33:45;0.88;;;0.63;;
60018;SDS011;45870;42.528;26.740;2022-12-18T00:36:12;1.10;;;0.60;;
60018;SDS011;45870;42.528;26.740;2022-12-18T00:38:40;0.43;;;0.40;;
60018;SDS011;45870;42.528;26.740;2022-12-18T00:41:07;0.52;;;0.35;;
60018;SDS011;45870;42.528;26.740;2022-12-18T00:43:34;2.00;;;0.45;;
60018;SDS011;45870;42.528;26.740;2022-12-18T00:46:00;0.55;;;0.20;;
60018;SDS011;45870;42.528;26.740;2022-12-18T00:48:26;0.40;;;0.20;;
60018;SDS011;45870;42.528;26.740;2022-12-18T00:50:52;1.30;;;0.40;;
60018;SDS011;45870;42.528;26.740;2022-12-18T00:53:17;0.43;;;0.20;;
60018;SDS011;45870;42.528;26.740;2022-12-18T00:55:44;0.88;;;0.25;;
60018;SDS011;45870;42.528;26.740;2022-12-18T00:58:11;0.93;;;0.40;;
60018;SDS011;45870;42.528;26.740;2022-12-18T01:00:38;0.73;;;0.43;;
60018;SDS011;45870;42.528;26.740;2022-12-18T01:03:04;1.00;;;0.60;;
60018;SDS011;45870;42.528;26.740;2022-12-18T01:05:31;0.70;;;0.50;;
60018;SDS011;45870;42.528;26.740;2022-12-18T01:07:57;1.98;;;0.55;;
60018;SDS011;45870;42.528;26.740;2022-12-18T01:10:24;1.17;;;0.63;;
60018;SDS011;45870;42.528;26.740;2022-12-18T01:12:50;0.13;;;0.10;;
60018;SDS011;45870;42.528;26.740;2022-12-18T01:15:16;0.22;;;0.17;;
60018;SDS011;45870;42.528;26.740;2022-12-18T01:17:42;0.75;;;0.30;;
60018;SDS011;45870;42.528;26.740;2022-12-18T01:20:09;0.63;;;0.30;;
60018;SDS011;45870;42.528;26.740;2022-12-18T01:22:35;0.98;;;0.22;;
60018;SDS011;45870;42.528;26.740;2022-12-18T01:25:01;1.45;;;0.50;;
60018;SDS011;45870;42.528;26.740;2022-12-18T01:27:31;0.40;;;0.20;;
60018;SDS011;45870;42.528;26.740;2022-12-18T01:29:59;3.40;;;0.45;;
60018;SDS011;45870;42.528;26.740;2022-12-18T01:32:24;1.02;;;0.30;;
60018;SDS011;45870;42.528;26.740;2022-12-18T01:34:50;1.23;;;0.50;;
60018;SDS011;45870;42.528;26.740;2022-12-18T01:37:16;0.93;;;0.70;;
60018;SDS011;45870;42.528;26.740;2022-12-18T01:39:42;0.98;;;0.32;;
60018;SDS011;45870;42.528;26.740;2022-12-18T01:42:12;0.40;;;0.30;;
60018;SDS011;45870;42.528;26.740;2022-12-18T01:45:00;1.77;;;0.90;;
60018;SDS011;45870;42.528;26.740;2022-12-18T01:50:16;0.60;;;0.22;;
60018;SDS011;45870;42.528;26.740;2022-12-18T01:55:10;2.58;;;0.50;;
60018;SDS011;45870;42.528;26.740;2022-12-18T01:57:38;1.23;;;0.73;;
60018;SDS011;45870;42.528;26.740;2022-12-18T02:00:07;0.50;;;0.13;;
60018;SDS011;45870;42.528;26.740;2022-12-18T02:02:36;1.73;;;0.50;;
60018;SDS011;45870;42.528;26.740;2022-12-18T02:05:03;0.55;;;0.25;;
60018;SDS011;45870;42.528;26.740;2022-12-18T02:07:42;0.40;;;0.35;;
60018;SDS011;45870;42.528;26.740;2022-12-18T02:10:31;0.40;;;0.38;;
60018;SDS011;45870;42.528;26.740;2022-12-18T02:15:52;0.73;;;0.52;;
60018;SDS011;45870;42.528;26.740;2022-12-18T02:18:26;2.03;;;1.05;;
60018;SDS011;45870;42.528;26.740;2022-12-18T02:21:08;2.28;;;1.42;;
60018;SDS011;45870;42.528;26.740;2022-12-18T02:26:52;3.25;;;2.10;;
60018;SDS011;45870;42.528;26.740;2022-12-18T02:29:24;5.80;;;2.20;;
60018;SDS011;45870;42.528;26.740;2022-12-18T02:31:55;9.07;;;2.35;;
60018;SDS011;45870;42.528;26.740;2022-12-18T02:34:24;8.52;;;2.30;;
60018;SDS011;45870;42.528;26.740;2022-12-18T02:36:54;10.65;;;3.33;;
60018;SDS011;45870;42.528;26.740;2022-12-18T02:39:23;2.22;;;1.63;;
60018;SDS011;45870;42.528;26.740;2022-12-18T02:41:51;2.67;;;1.63;;
60018;SDS011;45870;42.528;26.740;2022-12-18T02:44:17;2.83;;;2.05;;
60018;SDS011;45870;42.528;26.740;2022-12-18T02:46:45;4.97;;;2.33;;
60018;SDS011;45870;42.528;26.740;2022-12-18T02:55:15;4.50;;;1.45;;
60018;SDS011;45870;42.528;26.740;2022-12-18T02:57:53;1.00;;;0.75;;
60018;SDS011;45870;42.528;26.740;2022-12-18T03:00:23;1.10;;;0.60;;
60018;SDS011;45870;42.528;26.740;2022-12-18T03:02:59;1.42;;;0.73;;
60018;SDS011;45870;42.528;26.740;2022-12-18T03:05:53;0.32;;;0.25;;
60018;SDS011;45870;42.528;26.740;2022-12-18T03:08:30;1.48;;;0.63;;
60018;SDS011;45870;42.528;26.740;2022-12-18T03:11:05;0.70;;;0.30;;
60018;SDS011;45870;42.528;26.740;2022-12-18T03:13:35;0.88;;;0.38;;
60018;SDS011;45870;42.528;26.740;2022-12-18T03:16:19;0.35;;;0.30;;
60018;SDS011;45870;42.528;26.740;2022-12-18T03:18:58;1.58;;;0.75;;
60018;SDS011;45870;42.528;26.740;2022-12-18T03:21:32;0.73;;;0.35;;
60018;SDS011;45870;42.528;26.740;2022-12-18T03:24:02;2.10;;;0.60;;
60018;SDS011;45870;42.528;26.740;2022-12-18T03:26:33;0.15;;;0.15;;
60018;SDS011;45870;42.528;26.740;2022-12-18T03:29:03;2.70;;;1.13;;
60018;SDS011;45870;42.528;26.740;2022-12-18T03:31:35;0.50;;;0.40;;
60018;SDS011;45870;42.528;26.740;2022-12-18T03:34:05;0.55;;;0.50;;
60018;SDS011;45870;42.528;26.740;2022-12-18T03:36:38;1.92;;;0.70;;
60018;SDS011;45870;42.528;26.740;2022-12-18T03:39:04;0.45;;;0.30;;
60018;SDS011;45870;42.528;26.740;2022-12-18T03:44:32;0.30;;;0.17;;
60018;SDS011;45870;42.528;26.740;2022-12-18T03:47:09;1.15;;;0.68;;
60018;SDS011;45870;42.528;26.740;2022-12-18T03:52:54;0.55;;;0.20;;
60018;SDS011;45870;42.528;26.740;2022-12-18T03:55:34;1.20;;;0.43;;
60018;SDS011;45870;42.528;26.740;2022-12-18T03:58:01;0.25;;;0.20;;
60018;SDS011;45870;42.528;26.740;2022-12-18T04:00:29;0.98;;;0.85;;
60018;SDS011;45870;42.528;26.740;2022-12-18T04:02:57;0.85;;;0.85;;
60018;SDS011;45870;42.528;26.740;2022-12-18T04:05:26;0.63;;;0.20;;
60018;SDS011;45870;42.528;26.740;2022-12-18T04:07:53;1.05;;;0.50;;
60018;SDS011;45870;42.528;26.740;2022-12-18T04:10:21;0.60;;;0.60;;
60018;SDS011;45870;42.528;26.740;2022-12-18T04:12:47;1.10;;;0.52;;
60018;SDS011;45870;42.528;26.740;2022-12-18T04:15:13;0.38;;;0.25;;
60018;SDS011;45870;42.528;26.740;2022-12-18T04:17:43;0.40;;;0.40;;
60018;SDS011;45870;42.528;26.740;2022-12-18T04:20:13;0.65;;;0.30;;
60018;SDS011;45870;42.528;26.740;2022-12-18T04:22:39;0.75;;;0.50;;
60018;SDS011;45870;42.528;26.740;2022-12-18T04:25:05;1.48;;;0.63;;
60018;SDS011;45870;42.528;26.740;2022-12-18T04:27:31;0.50;;;0.15;;
60018;SDS011;45870;42.528;26.740;2022-12-18T04:29:57;0.40;;;0.40;;
60018;SDS011;45870;42.528;26.740;2022-12-18T04:32:22;0.43;;;0.35;;
60018;SDS011;45870;42.528;26.740;2022-12-18T04:34:48;1.52;;;0.85;;
60018;SDS011;45870;42.528;26.740;2022-12-18T04:37:14;0.20;;;0.10;;
60018;SDS011;45870;42.528;26.740;2022-12-18T04:39:40;0.20;;;0.15;;
60018;SDS011;45870;42.528;26.740;2022-12-18T04:42:05;1.00;;;0.45;;
60018;SDS011;45870;42.528;26.740;2022-12-18T04:44:31;0.52;;;0.17;;
60018;SDS011;45870;42.528;26.740;2022-12-18T04:46:57;0.57;;;0.45;;
60018;SDS011;45870;42.528;26.740;2022-12-18T04:49:23;0.55;;;0.13;;
60018;SDS011;45870;42.528;26.740;2022-12-18T04:51:48;0.20;;;0.10;;
60018;SDS011;45870;42.528;26.740;2022-12-18T04:54:14;0.85;;;0.30;;
60018;SDS011;45870;42.528;26.740;2022-12-18T04:56:40;0.38;;;0.30;;
60018;SDS011;45870;42.528;26.740;2022-12-18T04:59:06;0.40;;;0.30;;
60018;SDS011;45870;42.528;26.740;2022-12-18T05:01:31;0.00;;;0.00;;
60018;SDS011;45870;42.528;26.740;2022-12-18T05:03:57;0.70;;;0.40;;
60018;SDS011;45870;42.528;26.740;2022-12-18T05:06:23;1.08;;;0.30;;
60018;SDS011;45870;42.528;26.740;2022-12-18T05:08:48;0.63;;;0.45;;
60018;SDS011;45870;42.528;26.740;2022-12-18T05:11:14;1.65;;;0.68;;
60018;SDS011;45870;42.528;26.740;2022-12-18T05:13:41;0.73;;;0.50;;
60018;SDS011;45870;42.528;26.740;2022-12-18T05:16:08;0.68;;;0.47;;
60018;SDS011;45870;42.528;26.740;2022-12-18T05:18:34;1.33;;;0.38;;
60018;SDS011;45870;42.528;26.740;2022-12-18T05:21:00;1.27;;;0.65;;
60018;SDS011;45870;42.528;26.740;2022-12-18T05:23:27;0.10;;;0.10;;
60018;SDS011;45870;42.528;26.740;2022-12-18T05:25:53;0.82;;;0.55;;
60018;SDS011;45870;42.528;26.740;2022-12-18T05:28:22;0.57;;;0.20;;
60018;SDS011;45870;42.528;26.740;2022-12-18T05:30:49;0.47;;;0.40;;
60018;SDS011;45870;42.528;26.740;2022-12-18T05:33:18;3.80;;;0.50;;
60018;SDS011;45870;42.528;26.740;2022-12-18T05:35:44;0.15;;;0.15;;
60018;SDS011;45870;42.528;26.740;2022-12-18T05:38:15;0.22;;;0.05;;
60018;SDS011;45870;42.528;26.740;2022-12-18T05:40:41;0.28;;;0.20;;
60018;SDS011;45870;42.528;26.740;2022-12-18T05:43:08;0.98;;;0.65;;
60018;SDS011;45870;42.528;26.740;2022-12-18T05:45:38;1.27;;;0.73;;
60018;SDS011;45870;42.528;26.740;2022-12-18T05:48:04;0.57;;;0.50;;
60018;SDS011;45870;42.528;26.740;2022-12-18T05:50:33;0.45;;;0.22;;
60018;SDS011;45870;42.528;26.740;2022-12-18T05:53:01;0.35;;;0.28;;
60018;SDS011;45870;42.528;26.740;2022-12-18T05:55:27;0.70;;;0.38;;
60018;SDS011;45870;42.528;26.740;2022-12-18T05:57:54;0.30;;;0.30;;
60018;SDS011;45870;42.528;26.740;2022-12-18T06:00:19;0.82;;;0.50;;
60018;SDS011;45870;42.528;26.740;2022-12-18T06:02:48;0.93;;;0.45;;
60018;SDS011;45870;42.528;26.740;2022-12-18T06:05:14;0.30;;;0.30;;
60018;SDS011;45870;42.528;26.740;2022-12-18T06:07:40;1.38;;;0.52;;
60018;SDS011;45870;42.528;26.740;2022-12-18T06:10:06;0.68;;;0.30;;
60018;SDS011;45870;42.528;26.740;2022-12-18T06:12:32;0.68;;;0.30;;
60018;SDS011;45870;42.528;26.740;2022-12-18T06:14:59;1.20;;;0.63;;
60018;SDS011;45870;42.528;26.740;2022-12-18T06:17:28;0.40;;;0.28;;
60018;SDS011;45870;42.528;26.740;2022-12-18T06:19:55;0.85;;;0.40;;
60018;SDS011;45870;42.528;26.740;2022-12-18T06:22:21;0.98;;;0.20;;
60018;SDS011;45870;42.528;26.740;2022-12-18T06:24:46;0.17;;;0.15;;
60018;SDS011;45870;42.528;26.740;2022-12-18T06:27:12;2.88;;;0.75;;
60018;SDS011;45870;42.528;26.740;2022-12-18T06:29:38;1.33;;;0.68;;
60018;SDS011;45870;42.528;26.740;2022-12-18T06:32:04;0.38;;;0.22;;
60018;SDS011;45870;42.528;26.740;2022-12-18T06:34:31;1.45;;;0.45;;
60018;SDS011;45870;42.528;26.740;2022-12-18T06:36:57;0.93;;;0.47;;
60018;SDS011;45870;42.528;26.740;2022-12-18T06:39:23;1.10;;;0.52;;
60018;SDS011;45870;42.528;26.740;2022-12-18T06:41:51;0.17;;;0.17;;
60018;SDS011;45870;42.528;26.740;2022-12-18T06:44:16;1.35;;;0.68;;
60018;SDS011;45870;42.528;26.740;2022-12-18T06:46:42;1.50;;;0.52;;
60018;SDS011;45870;42.528;26.740;2022-12-18T06:49:08;1.98;;;0.47;;
60018;SDS011;45870;42.528;26.740;2022-12-18T06:51:35;0.93;;;0.70;;
60018;SDS011;45870;42.528;26.740;2022-12-18T06:54:01;0.52;;;0.43;;
60018;SDS011;45870;42.528;26.740;2022-12-18T06:56:27;1.98;;;0.80;;
60018;SDS011;45870;42.528;26.740;2022-12-18T06:58:53;2.15;;;0.63;;
60018;SDS011;45870;42.528;26.740;2022-12-18T07:01:20;0.40;;;0.20;;
60018;SDS011;45870;42.528;26.740;2022-12-18T07:03:46;2.40;;;0.85;;
60018;SDS011;45870;42.528;26.740;2022-12-18T07:06:17;2.10;;;0.75;;
60018;SDS011;45870;42.528;26.740;2022-12-18T07:08:45;1.65;;;1.00;;
60018;SDS011;45870;42.528;26.740;2022-12-18T07:11:12;0.60;;;0.55;;
60018;SDS011;45870;42.528;26.740;2022-12-18T07:13:38;1.33;;;0.68;;
60018;SDS011;45870;42.528;26.740;2022-12-18T07:16:04;0.43;;;0.43;;
60018;SDS011;45870;42.528;26.740;2022-12-18T07:18:34;0.88;;;0.60;;
60018;SDS011;45870;42.528;26.740;2022-12-18T07:21:05;1.75;;;0.60;;
60018;SDS011;45870;42.528;26.740;2022-12-18T07:23:33;1.85;;;1.05;;
60018;SDS011;45870;42.528;26.740;2022-12-18T07:26:00;1.05;;;0.57;;
60018;SDS011;45870;42.528;26.740;2022-12-18T07:28:31;0.55;;;0.20;;
60018;SDS011;45870;42.528;26.740;2022-12-18T07:30:58;0.82;;;0.52;;
60018;SDS011;45870;42.528;26.740;2022-12-18T07:33:27;1.75;;;0.77;;
60018;SDS011;45870;42.528;26.740;2022-12-18T07:35:53;0.98;;;0.80;;
60018;SDS011;45870;42.528;26.740;2022-12-18T07:38:18;1.45;;;0.82;;
60018;SDS011;45870;42.528;26.740;2022-12-18T07:40:45;1.90;;;0.90;;
60018;SDS011;45870;42.528;26.740;2022-12-18T07:43:10;0.55;;;0.47;;
60018;SDS011;45870;42.528;26.740;2022-12-18T07:45:36;1.02;;;0.52;;
60018;SDS011;45870;42.528;26.740;2022-12-18T07:48:02;0.75;;;0.60;;
60018;SDS011;45870;42.528;26.740;2022-12-18T07:50:28;0.70;;;0.30;;
60018;SDS011;45870;42.528;26.740;2022-12-18T07:52:54;0.82;;;0.70;;
60018;SDS011;45870;42.528;26.740;2022-12-18T07:55:20;1.23;;;0.77;;
60018;SDS011;45870;42.528;26.740;2022-12-18T07:57:46;1.45;;;0.82;;
60018;SDS011;45870;42.528;26.740;2022-12-18T08:00:12;0.88;;;0.50;;
60018;SDS011;45870;42.528;26.740;2022-12-18T08:02:38;2.05;;;0.88;;
60018;SDS011;45870;42.528;26.740;2022-12-18T08:05:04;1.73;;;1.02;;
60018;SDS011;45870;42.528;26.740;2022-12-18T08:07:30;1.20;;;0.70;;
60018;SDS011;45870;42.528;26.740;2022-12-18T08:09:56;1.33;;;0.60;;
60018;SDS011;45870;42.528;26.740;2022-12-18T08:12:22;0.85;;;0.70;;
60018;SDS011;45870;42.528;26.740;2022-12-18T08:14:47;1.35;;;0.73;;
60018;SDS011;45870;42.528;26.740;2022-12-18T08:17:13;1.50;;;1.17;;
60018;SDS011;45870;42.528;26.740;2022-12-18T08:19:39;1.92;;;0.80;;
60018;SDS011;45870;42.528;26.740;2022-12-18T08:22:05;0.60;;;0.50;;
60018;SDS011;45870;42.528;26.740;2022-12-18T08:24:31;1.25;;;0.60;;
60018;SDS011;45870;42.528;26.740;2022-12-18T08:26:57;0.80;;;0.63;;
60018;SDS011;45870;42.528;26.740;2022-12-18T08:29:22;0.82;;;0.60;;
60018;SDS011;45870;42.528;26.740;2022-12-18T08:31:48;1.65;;;0.80;;
60018;SDS011;45870;42.528;26.740;2022-12-18T08:34:14;0.43;;;0.35;;
60018;SDS011;45870;42.528;26.740;2022-12-18T08:36:40;0.22;;;0.10;;
60018;SDS011;45870;42.528;26.740;2022-12-18T08:39:06;0.32;;;0.30;;
60018;SDS011;45870;42.528;26.740;2022-12-18T08:41:32;1.30;;;0.43;;
60018;SDS011;45870;42.528;26.740;2022-12-18T08:44:01;0.68;;;0.38;;
60018;SDS011;45870;42.528;26.740;2022-12-18T08:46:45;5.05;;;1.08;;
60018;SDS011;45870;42.528;26.740;2022-12-18T08:49:11;0.47;;;0.30;;
60018;SDS011;45870;42.528;26.740;2022-12-18T08:51:37;0.57;;;0.50;;
60018;SDS011;45870;42.528;26.740;2022-12-18T08:54:04;1.35;;;0.73;;
60018;SDS011;45870;42.528;26.740;2022-12-18T08:56:31;1.85;;;0.75;;
60018;SDS011;45870;42.528;26.740;2022-12-18T08:58:57;1.08;;;0.52;;
60018;SDS011;45870;42.528;26.740;2022-12-18T09:01:23;1.15;;;0.50;;
60018;SDS011;45870;42.528;26.740;2022-12-18T09:03:49;2.58;;;1.08;;
60018;SDS011;45870;42.528;26.740;2022-12-18T09:06:16;1.52;;;0.73;;
60018;SDS011;45870;42.528;26.740;2022-12-18T09:08:44;1.83;;;0.93;;
60018;SDS011;45870;42.528;26.740;2022-12-18T09:11:14;1.30;;;0.60;;
60018;SDS011;45870;42.528;26.740;2022-12-18T09:13:44;0.30;;;0.30;;
60018;SDS011;45870;42.528;26.740;2022-12-18T09:16:10;1.63;;;0.95;;
60018;SDS011;45870;42.528;26.740;2022-12-18T09:18:36;0.68;;;0.55;;
60018;SDS011;45870;42.528;26.740;2022-12-18T09:21:12;1.05;;;0.52;;
60018;SDS011;45870;42.528;26.740;2022-12-18T09:23:40;2.72;;;1.15;;
60018;SDS011;45870;42.528;26.740;2022-12-18T09:26:06;2.20;;;1.15;;
60018;SDS011;45870;42.528;26.740;2022-12-18T09:28:32;0.20;;;0.20;;
60018;SDS011;45870;42.528;26.740;2022-12-18T09:30:58;1.52;;;1.08;;
60018;SDS011;45870;42.528;26.740;2022-12-18T09:33:25;0.88;;;0.52;;
60018;SDS011;45870;42.528;26.740;2022-12-18T09:35:50;1.42;;;1.05;;
60018;SDS011;45870;42.528;26.740;2022-12-18T09:38:17;0.82;;;0.50;;
60018;SDS011;45870;42.528;26.740;2022-12-18T09:40:45;0.30;;;0.30;;
60018;SDS011;45870;42.528;26.740;2022-12-18T09:43:18;1.15;;;0.68;;
60018;SDS011;45870;42.528;26.740;2022-12-18T09:45:51;1.25;;;0.68;;
60018;SDS011;45870;42.528;26.740;2022-12-18T09:48:23;1.92;;;0.90;;
60018;SDS011;45870;42.528;26.740;2022-12-18T09:50:55;2.17;;;0.53;;
60018;SDS011;45870;42.528;26.740;2022-12-18T09:53:27;1.70;;;1.05;;
60018;SDS011;45870;42.528;26.740;2022-12-18T09:55:58;3.05;;;0.80;;
60018;SDS011;45870;42.528;26.740;2022-12-18T09:58:32;0.93;;;0.70;;
60018;SDS011;45870;42.528;26.740;2022-12-18T10:01:07;0.98;;;0.90;;
60018;SDS011;45870;42.528;26.740;2022-12-18T10:03:36;0.73;;;0.65;;
60018;SDS011;45870;42.528;26.740;2022-12-18T10:06:07;0.55;;;0.55;;
60018;SDS011;45870;42.528;26.740;2022-12-18T10:08:51;0.35;;;0.28;;
60018;SDS011;45870;42.528;26.740;2022-12-18T10:19:38;3.08;;;1.20;;
60018;SDS011;45870;42.528;26.740;2022-12-18T10:27:44;1.88;;;0.77;;
60018;SDS011;45870;42.528;26.740;2022-12-18T10:30:18;0.85;;;0.52;;
60018;SDS011;45870;42.528;26.740;2022-12-18T10:32:46;1.15;;;0.60;;
60018;SDS011;45870;42.528;26.740;2022-12-18T10:35:19;1.65;;;0.93;;
60018;SDS011;45870;42.528;26.740;2022-12-18T10:38:00;0.63;;;0.55;;
60018;SDS011;45870;42.528;26.740;2022-12-18T10:40:48;3.28;;;1.20;;
60018;SDS011;45870;42.528;26.740;2022-12-18T10:46:03;3.03;;;1.25;;
60018;SDS011;45870;42.528;26.740;2022-12-18T10:48:33;0.95;;;0.68;;
60018;SDS011;45870;42.528;26.740;2022-12-18T10:51:01;3.47;;;1.10;;
60018;SDS011;45870;42.528;26.740;2022-12-18T10:53:29;2.17;;;1.17;;
60018;SDS011;45870;42.528;26.740;2022-12-18T10:55:58;1.08;;;0.98;;
60018;SDS011;45870;42.528;26.740;2022-12-18T11:01:04;0.90;;;0.50;;
60018;SDS011;45870;42.528;26.740;2022-12-18T11:06:10;3.35;;;0.98;;
60018;SDS011;45870;42.528;26.740;2022-12-18T11:08:38;2.17;;;0.80;;
60018;SDS011;45870;42.528;26.740;2022-12-18T11:11:21;0.77;;;0.60;;
60018;SDS011;45870;42.528;26.740;2022-12-18T11:16:22;1.92;;;0.93;;
60018;SDS011;45870;42.528;26.740;2022-12-18T11:18:48;2.42;;;1.17;;
60018;SDS011;45870;42.528;26.740;2022-12-18T11:21:14;1.05;;;0.75;;
60018;SDS011;45870;42.528;26.740;2022-12-18T11:23:50;1.05;;;0.95;;
60018;SDS011;45870;42.528;26.740;2022-12-18T11:26:18;1.42;;;1.33;;
60018;SDS011;45870;42.528;26.740;2022-12-18T11:28:47;1.15;;;0.65;;
60018;SDS011;45870;42.528;26.740;2022-12-18T11:31:26;1.35;;;0.40;;
60018;SDS011;45870;42.528;26.740;2022-12-18T11:33:59;1.77;;;0.75;;
60018;SDS011;45870;42.528;26.740;2022-12-18T11:36:26;0.88;;;0.70;;
60018;SDS011;45870;42.528;26.740;2022-12-18T11:38:56;0.68;;;0.68;;
60018;SDS011;45870;42.528;26.740;2022-12-18T11:41:37;2.33;;;0.88;;
60018;SDS011;45870;42.528;26.740;2022-12-18T11:44:32;1.35;;;1.00;;
60018;SDS011;45870;42.528;26.740;2022-12-18T11:47:13;8.18;;;1.75;;
60018;SDS011;45870;42.528;26.740;2022-12-18T11:49:41;1.35;;;0.50;;
60018;SDS011;45870;42.528;26.740;2022-12-18T11:52:18;0.95;;;0.68;;
60018;SDS011;45870;42.528;26.740;2022-12-18T11:54:53;5.25;;;1.00;;
60018;SDS011;45870;42.528;26.740;2022-12-18T12:00:16;1.38;;;0.95;;
60018;SDS011;45870;42.528;26.740;2022-12-18T12:08:18;0.25;;;0.10;;
60018;SDS011;45870;42.528;26.740;2022-12-18T12:11:16;1.95;;;0.63;;
60018;SDS011;45870;42.528;26.740;2022-12-18T12:19:24;2.20;;;1.15;;
60018;SDS011;45870;42.528;26.740;2022-12-18T12:30:24;1.83;;;0.80;;
60018;SDS011;45870;42.528;26.740;2022-12-18T12:38:42;0.88;;;0.57;;
60018;SDS011;45870;42.528;26.740;2022-12-18T12:41:23;1.58;;;1.02;;
60018;SDS011;45870;42.528;26.740;2022-12-18T12:44:16;1.42;;;0.88;;
60018;SDS011;45870;42.528;26.740;2022-12-18T12:46:56;2.17;;;1.20;;
60018;SDS011;45870;42.528;26.740;2022-12-18T12:49:26;3.35;;;0.93;;
60018;SDS011;45870;42.528;26.740;2022-12-18T12:52:06;1.17;;;0.85;;
60018;SDS011;45870;42.528;26.740;2022-12-18T12:54:37;1.23;;;0.70;;
60018;SDS011;45870;42.528;26.740;2022-12-18T12:59:59;2.33;;;0.70;;
60018;SDS011;45870;42.528;26.740;2022-12-18T13:07:48;1.15;;;0.55;;
60018;SDS011;45870;42.528;26.740;2022-12-18T13:12:57;0.90;;;0.50;;
60018;SDS011;45870;42.528;26.740;2022-12-18T13:20:34;0.90;;;0.55;;
60018;SDS011;45870;42.528;26.740;2022-12-18T13:36:40;4.15;;;1.92;;
60018;SDS011;45870;42.528;26.740;2022-12-18T13:39:10;2.10;;;0.70;;
60018;SDS011;45870;42.528;26.740;2022-12-18T13:41:39;2.65;;;2.28;;
60018;SDS011;45870;42.528;26.740;2022-12-18T13:44:24;5.78;;;2.45;;
60018;SDS011;45870;42.528;26.740;2022-12-18T13:46:50;4.57;;;0.93;;
60018;SDS011;45870;42.528;26.740;2022-12-18T13:49:25;1.77;;;1.52;;
60018;SDS011;45870;42.528;26.740;2022-12-18T13:52:01;2.80;;;1.30;;
60018;SDS011;45870;42.528;26.740;2022-12-18T13:54:33;3.08;;;1.10;;
60018;SDS011;45870;42.528;26.740;2022-12-18T13:57:03;0.95;;;0.77;;
60018;SDS011;45870;42.528;26.740;2022-12-18T13:59:37;1.38;;;0.77;;
60018;SDS011;45870;42.528;26.740;2022-12-18T14:02:14;3.95;;;1.30;;
60018;SDS011;45870;42.528;26.740;2022-12-18T14:04:44;4.53;;;1.65;;
60018;SDS011;45870;42.528;26.740;2022-12-18T14:07:12;2.53;;;0.98;;
60018;SDS011;45870;42.528;26.740;2022-12-18T14:09:42;2.13;;;0.90;;
60018;SDS011;45870;42.528;26.740;2022-12-18T14:12:22;1.90;;;1.42;;
60018;SDS011;45870;42.528;26.740;2022-12-18T14:20:57;4.07;;;2.05;;
60018;SDS011;45870;42.528;26.740;2022-12-18T14:23:34;2.33;;;1.15;;
60018;SDS011;45870;42.528;26.740;2022-12-18T14:26:03;1.77;;;1.00;;
60018;SDS011;45870;42.528;26.740;2022-12-18T14:28:45;2.40;;;1.65;;
60018;SDS011;45870;42.528;26.740;2022-12-18T14:31:18;3.08;;;1.73;;
60018;SDS011;45870;42.528;26.740;2022-12-18T14:33:46;2.38;;;1.75;;
60018;SDS011;45870;42.528;26.740;2022-12-18T14:36:14;3.55;;;1.60;;
60018;SDS011;45870;42.528;26.740;2022-12-18T14:38:43;4.20;;;1.05;;
60018;SDS011;45870;42.528;26.740;2022-12-18T14:41:15;2.70;;;1.23;;
60018;SDS011;45870;42.528;26.740;2022-12-18T14:43:43;2.95;;;1.00;;
60018;SDS011;45870;42.528;26.740;2022-12-18T14:51:56;1.85;;;1.45;;
60018;SDS011;45870;42.528;26.740;2022-12-18T14:54:27;1.40;;;1.25;;
60018;SDS011;45870;42.528;26.740;2022-12-18T14:57:00;1.75;;;1.42;;
60018;SDS011;45870;42.528;26.740;2022-12-18T14:59:28;2.55;;;1.80;;
60018;SDS011;45870;42.528;26.740;2022-12-18T15:07:53;3.28;;;2.67;;
60018;SDS011;45870;42.528;26.740;2022-12-18T15:10:25;0.88;;;0.55;;
60018;SDS011;45870;42.528;26.740;2022-12-18T15:18:02;6.00;;;2.38;;
60018;SDS011;45870;42.528;26.740;2022-12-18T15:25:43;5.45;;;1.20;;
60018;SDS011;45870;42.528;26.740;2022-12-18T15:28:21;1.10;;;1.02;;
60018;SDS011;45870;42.528;26.740;2022-12-18T15:31:04;3.22;;;1.77;;
60018;SDS011;45870;42.528;26.740;2022-12-18T15:33:38;1.02;;;0.85;;
60018;SDS011;45870;42.528;26.740;2022-12-18T15:36:08;4.72;;;1.70;;
60018;SDS011;45870;42.528;26.740;2022-12-18T15:38:36;4.85;;;1.50;;
60018;SDS011;45870;42.528;26.740;2022-12-18T15:41:02;2.85;;;2.08;;
60018;SDS011;45870;42.528;26.740;2022-12-18T15:43:28;4.15;;;2.22;;
60018;SDS011;45870;42.528;26.740;2022-12-18T15:46:11;2.95;;;1.58;;
60018;SDS011;45870;42.528;26.740;2022-12-18T15:48:41;2.85;;;1.67;;
60018;SDS011;45870;42.528;26.740;2022-12-18T15:51:11;3.20;;;1.70;;
60018;SDS011;45870;42.528;26.740;2022-12-18T15:53:41;1.15;;;1.00;;
60018;SDS011;45870;42.528;26.740;2022-12-18T15:56:10;4.82;;;2.05;;
60018;SDS011;45870;42.528;26.740;2022-12-18T15:58:56;2.00;;;1.73;;
60018;SDS011;45870;42.528;26.740;2022-12-18T16:01:22;3.88;;;2.15;;
60018;SDS011;45870;42.528;26.740;2022-12-18T16:03:50;0.63;;;0.63;;
60018;SDS011;45870;42.528;26.740;2022-12-18T16:06:16;3.33;;;1.83;;
60018;SDS011;45870;42.528;26.740;2022-12-18T16:08:42;2.80;;;1.17;;
60018;SDS011;45870;42.528;26.740;2022-12-18T16:11:14;4.07;;;1.80;;
60018;SDS011;45870;42.528;26.740;2022-12-18T16:16:53;3.10;;;1.50;;
60018;SDS011;45870;42.528;26.740;2022-12-18T16:19:21;2.88;;;2.10;;
60018;SDS011;45870;42.528;26.740;2022-12-18T16:21:48;4.25;;;1.63;;
60018;SDS011;45870;42.528;26.740;2022-12-18T16:24:16;2.22;;;1.58;;
60018;SDS011;45870;42.528;26.740;2022-12-18T16:26:43;3.75;;;1.75;;
60018;SDS011;45870;42.528;26.740;2022-12-18T16:29:10;3.75;;;2.20;;
60018;SDS011;45870;42.528;26.740;2022-12-18T16:31:36;3.28;;;2.40;;
60018;SDS011;45870;42.528;26.740;2022-12-18T16:34:12;4.55;;;3.28;;
60018;SDS011;45870;42.528;26.740;2022-12-18T16:36:43;1.88;;;1.20;;
60018;SDS011;45870;42.528;26.740;2022-12-18T16:39:09;4.38;;;2.03;;
60018;SDS011;45870;42.528;26.740;2022-12-18T16:41:34;5.18;;;2.63;;
60018;SDS011;45870;42.528;26.740;2022-12-18T16:44:00;2.40;;;1.55;;
60018;SDS011;45870;42.528;26.740;2022-12-18T16:46:26;6.78;;;1.83;;
60018;SDS011;45870;42.528;26.740;2022-12-18T16:48:52;5.18;;;1.52;;
60018;SDS011;45870;42.528;26.740;2022-12-18T16:51:18;1.70;;;1.27;;
60018;SDS011;45870;42.528;26.740;2022-12-18T16:53:43;5.13;;;1.52;;
60018;SDS011;45870;42.528;26.740;2022-12-18T16:56:09;4.45;;;1.90;;
60018;SDS011;45870;42.528;26.740;2022-12-18T16:58:35;2.97;;;1.77;;
60018;SDS011;45870;42.528;26.740;2022-12-18T17:01:01;3.13;;;2.20;;
60018;SDS011;45870;42.528;26.740;2022-12-18T17:03:31;2.35;;;1.67;;